sensor_id;sensor_type;location;lat;lon;timestamp;pressure;altitude;pressure_sealevel;temperature;humidity
49825;BME280;35714;55.708;37.478;2023-03-31T00:00:55;98750.91;;;2.64;55.97
49825;BME280;35714;55.708;37.478;2023-03-31T00:03:22;98751.69;;;2.58;56.11
49825;BME280;35714;55.708;37.478;2023-03-31T00:05:56;98747.59;;;2.55;56.22
49825;BME280;35714;55.708;37.478;2023-03-31T00:08:23;98751.25;;;2.47;56.16
49825;BME280;35714;55.708;37.478;2023-03-31T00:10:49;98738.88;;;2.40;56.01
49825;BME280;35714;55.708;37.478;2023-03-31T00:13:15;98737.56;;;2.29;56.09
49825;BME280;35714;55.708;37.478;2023-03-31T00:15:41;98737.94;;;2.19;56.47
49825;BME280;35714;55.708;37.478;2023-03-31T00:18:06;98732.31;;;2.07;56.63
49825;BME280;35714;55.708;37.478;2023-03-31T00:20:32;98739.88;;;1.97;56.53
49825;BME280;35714;55.708;37.478;2023-03-31T00:23:03;98751.34;;;1.91;56.88
49825;BME280;35714;55.708;37.478;2023-03-31T00:25:30;98739.78;;;1.84;57.14
49825;BME280;35714;55.708;37.478;2023-03-31T00:27:56;98742.25;;;1.85;56.96
49825;BME280;35714;55.708;37.478;2023-03-31T00:30:22;98744.53;;;1.88;57.48
49825;BME280;35714;55.708;37.478;2023-03-31T00:32:48;98741.66;;;1.90;57.41
49825;BME280;35714;55.708;37.478;2023-03-31T00:35:13;98751.38;;;1.97;57.28
49825;BME280;35714;55.708;37.478;2023-03-31T00:37:39;98744.06;;;2.06;57.53
49825;BME280;35714;55.708;37.478;2023-03-31T00:40:05;98732.19;;;2.15;57.48
49825;BME280;35714;55.708;37.478;2023-03-31T00:42:38;98737.16;;;2.25;57.24
49825;BME280;35714;55.708;37.478;2023-03-31T00:47:44;98722.72;;;2.20;57.15
49825;BME280;35714;55.708;37.478;2023-03-31T00:50:17;98722.34;;;2.29;57.01
49825;BME280;35714;55.708;37.478;2023-03-31T00:52:49;98719.88;;;2.28;57.22
49825;BME280;35714;55.708;37.478;2023-03-31T00:55:19;98728.97;;;2.33;57.06
49825;BME280;35714;55.708;37.478;2023-03-31T00:57:47;98726.09;;;2.35;57.00
49825;BME280;35714;55.708;37.478;2023-03-31T01:00:14;98726.91;;;2.35;56.92
49825;BME280;35714;55.708;37.478;2023-03-31T01:02:45;98737.66;;;2.42;56.70
49825;BME280;35714;55.708;37.478;2023-03-31T01:05:22;98728.56;;;2.37;56.67
49825;BME280;35714;55.708;37.478;2023-03-31T01:07:49;98721.13;;;2.32;56.83
49825;BME280;35714;55.708;37.478;2023-03-31T01:10:16;98721.94;;;2.32;57.07
49825;BME280;35714;55.708;37.478;2023-03-31T01:12:48;98718.44;;;2.32;57.03
49825;BME280;35714;55.708;37.478;2023-03-31T01:15:14;98711.03;;;2.34;56.99
49825;BME280;35714;55.708;37.478;2023-03-31T01:17:41;98698.28;;;2.29;56.82
49825;BME280;35714;55.708;37.478;2023-03-31T01:28:32;98690.22;;;2.23;57.18
49825;BME280;35714;55.708;37.478;2023-03-31T01:36:50;98690.41;;;2.14;57.35
49825;BME280;35714;55.708;37.478;2023-03-31T01:48:01;98680.91;;;2.12;57.45
49825;BME280;35714;55.708;37.478;2023-03-31T01:56:09;98668.78;;;2.09;57.64
49825;BME280;35714;55.708;37.478;2023-03-31T01:58:40;98661.31;;;1.98;57.64
49825;BME280;35714;55.708;37.478;2023-03-31T02:01:30;98674.06;;;2.03;57.45
49825;BME280;35714;55.708;37.478;2023-03-31T02:04:02;98667.03;;;1.95;57.88
49825;BME280;35714;55.708;37.478;2023-03-31T02:06:35;98665.00;;;1.90;57.92
49825;BME280;35714;55.708;37.478;2023-03-31T02:09:10;98663.69;;;1.79;58.33
49825;BME280;35714;55.708;37.478;2023-03-31T02:11:39;98673.22;;;1.89;58.28
49825;BME280;35714;55.708;37.478;2023-03-31T02:14:08;98671.34;;;1.89;58.44
49825;BME280;35714;55.708;37.478;2023-03-31T02:16:57;98663.09;;;1.84;58.21
49825;BME280;35714;55.708;37.478;2023-03-31T02:19:28;98657.91;;;1.76;58.11
49825;BME280;35714;55.708;37.478;2023-03-31T02:21:57;98663.63;;;1.73;58.27
49825;BME280;35714;55.708;37.478;2023-03-31T02:24:24;98666.88;;;1.68;58.55
49825;BME280;35714;55.708;37.478;2023-03-31T02:27:16;98674.72;;;1.70;58.46
49825;BME280;35714;55.708;37.478;2023-03-31T02:29:43;98673.88;;;1.62;58.63
49825;BME280;35714;55.708;37.478;2023-03-31T02:32:28;98665.63;;;1.57;58.36
49825;BME280;35714;55.708;37.478;2023-03-31T02:34:58;98670.75;;;1.59;58.54
49825;BME280;35714;55.708;37.478;2023-03-31T02:37:24;98666.44;;;1.58;58.33
49825;BME280;35714;55.708;37.478;2023-03-31T02:39:52;98675.41;;;1.50;58.34
49825;BME280;35714;55.708;37.478;2023-03-31T02:42:20;98674.91;;;1.40;58.29
49825;BME280;35714;55.708;37.478;2023-03-31T02:44:48;98669.53;;;1.33;58.42
49825;BME280;35714;55.708;37.478;2023-03-31T02:47:16;98675.66;;;1.27;58.49
49825;BME280;35714;55.708;37.478;2023-03-31T02:49:49;98656.22;;;1.12;58.69
49825;BME280;35714;55.708;37.478;2023-03-31T03:00:58;98674.00;;;0.98;59.60
49825;BME280;35714;55.708;37.478;2023-03-31T03:11:50;98651.25;;;0.80;59.95
49825;BME280;35714;55.708;37.478;2023-03-31T03:17:26;98680.59;;;0.80;59.95
49825;BME280;35714;55.708;37.478;2023-03-31T03:19:57;98688.13;;;0.77;60.21
49825;BME280;35714;55.708;37.478;2023-03-31T03:22:24;98690.81;;;0.77;60.33
49825;BME280;35714;55.708;37.478;2023-03-31T03:24:50;98679.75;;;0.80;60.60
49825;BME280;35714;55.708;37.478;2023-03-31T03:27:17;98675.25;;;0.80;60.57
49825;BME280;35714;55.708;37.478;2023-03-31T03:29:43;98661.72;;;0.82;60.73
49825;BME280;35714;55.708;37.478;2023-03-31T03:32:09;98660.06;;;0.81;60.75
49825;BME280;35714;55.708;37.478;2023-03-31T03:34:35;98648.38;;;0.82;60.73
49825;BME280;35714;55.708;37.478;2023-03-31T03:37:01;98649.81;;;0.84;60.58
49825;BME280;35714;55.708;37.478;2023-03-31T03:39:27;98647.34;;;0.83;60.40
49825;BME280;35714;55.708;37.478;2023-03-31T03:41:52;98644.06;;;0.81;60.22
49825;BME280;35714;55.708;37.478;2023-03-31T03:44:18;98633.75;;;0.78;60.11
49825;BME280;35714;55.708;37.478;2023-03-31T03:46:44;98630.28;;;0.77;60.07
49825;BME280;35714;55.708;37.478;2023-03-31T03:49:09;98631.09;;;0.78;60.19
49825;BME280;35714;55.708;37.478;2023-03-31T03:51:35;98641.59;;;0.79;59.92
49825;BME280;35714;55.708;37.478;2023-03-31T03:54:01;98637.06;;;0.80;59.86
49825;BME280;35714;55.708;37.478;2023-03-31T03:56:26;98623.53;;;0.81;60.07
49825;BME280;35714;55.708;37.478;2023-03-31T03:58:52;98612.84;;;0.81;59.98
49825;BME280;35714;55.708;37.478;2023-03-31T04:01:18;98620.47;;;0.84;59.89
49825;BME280;35714;55.708;37.478;2023-03-31T04:03:44;98626.63;;;0.85;59.80
49825;BME280;35714;55.708;37.478;2023-03-31T04:06:09;98614.94;;;0.86;60.09
49825;BME280;35714;55.708;37.478;2023-03-31T04:08:35;98608.84;;;0.92;60.24
49825;BME280;35714;55.708;37.478;2023-03-31T04:11:02;98606.03;;;1.00;60.43
49825;BME280;35714;55.708;37.478;2023-03-31T04:13:28;98598.28;;;1.05;60.09
49825;BME280;35714;55.708;37.478;2023-03-31T04:15:54;98599.34;;;1.11;60.07
49825;BME280;35714;55.708;37.478;2023-03-31T04:18:19;98604.91;;;1.16;60.05
49825;BME280;35714;55.708;37.478;2023-03-31T04:20:52;98604.13;;;1.22;59.92
49825;BME280;35714;55.708;37.478;2023-03-31T04:23:34;98602.34;;;1.30;60.18
49825;BME280;35714;55.708;37.478;2023-03-31T04:26:03;98597.19;;;1.28;60.31
49825;BME280;35714;55.708;37.478;2023-03-31T04:28:34;98600.97;;;1.40;60.27
49825;BME280;35714;55.708;37.478;2023-03-31T04:31:00;98606.38;;;1.54;60.04
49825;BME280;35714;55.708;37.478;2023-03-31T04:33:27;98609.34;;;1.66;60.23
49825;BME280;35714;55.708;37.478;2023-03-31T04:35:52;98599.56;;;1.79;59.98
49825;BME280;35714;55.708;37.478;2023-03-31T04:38:20;98586.84;;;1.95;59.61
49825;BME280;35714;55.708;37.478;2023-03-31T04:40:50;98579.91;;;2.07;59.45
49825;BME280;35714;55.708;37.478;2023-03-31T04:43:18;98586.91;;;2.15;59.25
49825;BME280;35714;55.708;37.478;2023-03-31T04:45:44;98585.31;;;2.27;59.32
49825;BME280;35714;55.708;37.478;2023-03-31T04:48:10;98586.56;;;2.38;59.04
49825;BME280;35714;55.708;37.478;2023-03-31T04:50:36;98573.41;;;2.43;58.65
49825;BME280;35714;55.708;37.478;2023-03-31T04:53:03;98572.38;;;2.44;58.35
49825;BME280;35714;55.708;37.478;2023-03-31T04:55:29;98571.78;;;2.49;58.64
49825;BME280;35714;55.708;37.478;2023-03-31T04:57:55;98554.06;;;2.55;58.38
49825;BME280;35714;55.708;37.478;2023-03-31T05:00:21;98564.34;;;2.58;58.30
49825;BME280;35714;55.708;37.478;2023-03-31T05:02:47;98566.03;;;2.59;58.44
49825;BME280;35714;55.708;37.478;2023-03-31T05:05:13;98576.13;;;2.63;57.86
49825;BME280;35714;55.708;37.478;2023-03-31T05:07:38;98583.31;;;2.63;58.17
49825;BME280;35714;55.708;37.478;2023-03-31T05:10:05;98584.13;;;2.57;57.99
49825;BME280;35714;55.708;37.478;2023-03-31T05:12:34;98575.06;;;2.58;57.91
49825;BME280;35714;55.708;37.478;2023-03-31T05:15:01;98573.47;;;2.77;58.25
49825;BME280;35714;55.708;37.478;2023-03-31T05:17:26;98569.94;;;2.96;58.21
49825;BME280;35714;55.708;37.478;2023-03-31T05:19:52;98580.44;;;3.11;57.40
49825;BME280;35714;55.708;37.478;2023-03-31T05:22:18;98587.44;;;3.25;57.19
49825;BME280;35714;55.708;37.478;2023-03-31T05:24:46;98580.19;;;3.39;57.14
49825;BME280;35714;55.708;37.478;2023-03-31T05:27:12;98575.41;;;3.55;56.84
49825;BME280;35714;55.708;37.478;2023-03-31T05:29:37;98574.53;;;3.68;56.53
49825;BME280;35714;55.708;37.478;2023-03-31T05:32:03;98579.91;;;3.68;55.90
49825;BME280;35714;55.708;37.478;2023-03-31T05:34:29;98589.63;;;3.62;55.61
49825;BME280;35714;55.708;37.478;2023-03-31T05:36:55;98577.66;;;3.65;55.85
49825;BME280;35714;55.708;37.478;2023-03-31T05:39:22;98577.44;;;3.73;55.72
49825;BME280;35714;55.708;37.478;2023-03-31T05:41:47;98583.56;;;3.80;55.66
49825;BME280;35714;55.708;37.478;2023-03-31T05:44:13;98580.84;;;3.93;55.65
49825;BME280;35714;55.708;37.478;2023-03-31T05:46:38;98587.41;;;4.04;55.35
49825;BME280;35714;55.708;37.478;2023-03-31T05:49:05;98582.63;;;4.13;55.29
49825;BME280;35714;55.708;37.478;2023-03-31T05:51:31;98568.53;;;4.24;55.16
49825;BME280;35714;55.708;37.478;2023-03-31T05:53:57;98568.47;;;4.38;55.01
49825;BME280;35714;55.708;37.478;2023-03-31T05:56:22;98570.44;;;4.49;54.65
49825;BME280;35714;55.708;37.478;2023-03-31T05:58:48;98560.06;;;4.59;54.41
49825;BME280;35714;55.708;37.478;2023-03-31T06:01:16;98546.59;;;4.66;54.15
49825;BME280;35714;55.708;37.478;2023-03-31T06:03:45;98541.38;;;4.71;53.81
49825;BME280;35714;55.708;37.478;2023-03-31T06:06:11;98541.16;;;4.73;53.83
49825;BME280;35714;55.708;37.478;2023-03-31T06:08:37;98541.81;;;4.68;53.85
49825;BME280;35714;55.708;37.478;2023-03-31T06:11:05;98549.06;;;4.67;53.98
49825;BME280;35714;55.708;37.478;2023-03-31T06:13:31;98545.94;;;4.70;53.72
49825;BME280;35714;55.708;37.478;2023-03-31T06:15:58;98555.81;;;4.77;53.89
49825;BME280;35714;55.708;37.478;2023-03-31T06:18:26;98552.84;;;4.85;53.58
49825;BME280;35714;55.708;37.478;2023-03-31T06:20:53;98538.81;;;4.83;53.38
49825;BME280;35714;55.708;37.478;2023-03-31T06:23:20;98555.69;;;4.90;53.36
49825;BME280;35714;55.708;37.478;2023-03-31T06:25:45;98546.81;;;4.90;53.32
49825;BME280;35714;55.708;37.478;2023-03-31T06:28:11;98551.91;;;4.98;53.34
49825;BME280;35714;55.708;37.478;2023-03-31T06:30:37;98556.97;;;5.06;53.07
49825;BME280;35714;55.708;37.478;2023-03-31T06:33:03;98553.47;;;5.05;52.82
49825;BME280;35714;55.708;37.478;2023-03-31T06:35:29;98557.19;;;5.04;52.70
49825;BME280;35714;55.708;37.478;2023-03-31T06:37:55;98544.84;;;5.03;52.79
49825;BME280;35714;55.708;37.478;2023-03-31T06:40:20;98544.84;;;5.03;52.64
49825;BME280;35714;55.708;37.478;2023-03-31T06:42:46;98549.88;;;4.93;52.53
49825;BME280;35714;55.708;37.478;2023-03-31T06:45:12;98545.81;;;4.84;52.81
49825;BME280;35714;55.708;37.478;2023-03-31T06:47:37;98524.38;;;4.77;53.12
49825;BME280;35714;55.708;37.478;2023-03-31T06:50:04;98536.34;;;4.81;52.61
49825;BME280;35714;55.708;37.478;2023-03-31T06:52:31;98522.72;;;4.76;52.91
49825;BME280;35714;55.708;37.478;2023-03-31T06:54:56;98530.13;;;4.81;53.00
49825;BME280;35714;55.708;37.478;2023-03-31T06:57:22;98537.94;;;4.89;53.06
49825;BME280;35714;55.708;37.478;2023-03-31T06:59:47;98549.81;;;5.00;52.97
49825;BME280;35714;55.708;37.478;2023-03-31T07:02:13;98553.47;;;5.05;52.76
49825;BME280;35714;55.708;37.478;2023-03-31T07:04:38;98551.13;;;5.16;52.76
49825;BME280;35714;55.708;37.478;2023-03-31T07:07:04;98544.22;;;5.27;52.69
49825;BME280;35714;55.708;37.478;2023-03-31T07:09:30;98547.41;;;5.35;52.36
49825;BME280;35714;55.708;37.478;2023-03-31T07:11:55;98539.50;;;5.40;52.14
49825;BME280;35714;55.708;37.478;2023-03-31T07:14:21;98539.72;;;5.57;51.89
49825;BME280;35714;55.708;37.478;2023-03-31T07:16:47;98532.56;;;5.70;51.74
49825;BME280;35714;55.708;37.478;2023-03-31T07:19:12;98529.09;;;5.81;51.57
49825;BME280;35714;55.708;37.478;2023-03-31T07:21:39;98524.06;;;5.85;51.17
49825;BME280;35714;55.708;37.478;2023-03-31T07:24:05;98530.38;;;5.97;51.25
49825;BME280;35714;55.708;37.478;2023-03-31T07:26:31;98523.84;;;6.05;50.82
49825;BME280;35714;55.708;37.478;2023-03-31T07:28:57;98527.06;;;6.13;50.77
49825;BME280;35714;55.708;37.478;2023-03-31T07:31:23;98528.69;;;6.14;49.96
49825;BME280;35714;55.708;37.478;2023-03-31T07:33:49;98514.38;;;6.02;50.40
49825;BME280;35714;55.708;37.478;2023-03-31T07:36:15;98524.59;;;6.12;50.38
49825;BME280;35714;55.708;37.478;2023-03-31T07:38:43;98522.38;;;6.21;50.43
49825;BME280;35714;55.708;37.478;2023-03-31T07:41:12;98519.00;;;6.25;49.97
49825;BME280;35714;55.708;37.478;2023-03-31T07:43:38;98529.25;;;6.35;49.85
49825;BME280;35714;55.708;37.478;2023-03-31T07:46:05;98532.31;;;6.39;50.16
49825;BME280;35714;55.708;37.478;2023-03-31T07:48:33;98532.06;;;6.40;49.63
49825;BME280;35714;55.708;37.478;2023-03-31T07:50:58;98522.56;;;6.38;49.56
49825;BME280;35714;55.708;37.478;2023-03-31T07:53:30;98522.91;;;6.41;49.45
49825;BME280;35714;55.708;37.478;2023-03-31T07:55:56;98529.50;;;6.45;49.19
49825;BME280;35714;55.708;37.478;2023-03-31T07:58:21;98528.31;;;6.41;49.48
49825;BME280;35714;55.708;37.478;2023-03-31T08:00:47;98526.69;;;6.40;49.72
49825;BME280;35714;55.708;37.478;2023-03-31T08:03:12;98527.78;;;6.51;49.72
49825;BME280;35714;55.708;37.478;2023-03-31T08:05:38;98507.84;;;6.52;49.40
49825;BME280;35714;55.708;37.478;2023-03-31T08:08:04;98518.44;;;6.65;49.23
49825;BME280;35714;55.708;37.478;2023-03-31T08:10:29;98515.84;;;6.59;48.31
49825;BME280;35714;55.708;37.478;2023-03-31T08:12:55;98509.25;;;6.55;48.86
49825;BME280;35714;55.708;37.478;2023-03-31T08:15:21;98502.69;;;6.50;48.65
49825;BME280;35714;55.708;37.478;2023-03-31T08:17:47;98494.84;;;6.49;48.63
49825;BME280;35714;55.708;37.478;2023-03-31T08:20:12;98493.00;;;6.49;48.75
49825;BME280;35714;55.708;37.478;2023-03-31T08:22:39;98485.50;;;6.52;48.92
49825;BME280;35714;55.708;37.478;2023-03-31T08:25:05;98498.50;;;6.66;48.52
49825;BME280;35714;55.708;37.478;2023-03-31T08:27:34;98492.19;;;6.73;48.11
49825;BME280;35714;55.708;37.478;2023-03-31T08:30:01;98496.63;;;6.79;48.44
49825;BME280;35714;55.708;37.478;2023-03-31T08:32:33;98486.34;;;6.88;48.65
49825;BME280;35714;55.708;37.478;2023-03-31T08:34:59;98487.38;;;7.10;48.48
49825;BME280;35714;55.708;37.478;2023-03-31T08:37:25;98479.06;;;7.23;47.65
49825;BME280;35714;55.708;37.478;2023-03-31T08:39:53;98476.47;;;7.29;46.85
49825;BME280;35714;55.708;37.478;2023-03-31T08:45:45;98456.91;;;6.98;47.28
49825;BME280;35714;55.708;37.478;2023-03-31T08:50:45;98452.00;;;6.95;47.42
49825;BME280;35714;55.708;37.478;2023-03-31T08:55:55;98450.81;;;7.14;47.03
49825;BME280;35714;55.708;37.478;2023-03-31T08:58:48;98451.06;;;7.01;47.20
49825;BME280;35714;55.708;37.478;2023-03-31T09:04:17;98449.22;;;7.01;47.74
49825;BME280;35714;55.708;37.478;2023-03-31T09:15:01;98433.56;;;7.27;47.17
49825;BME280;35714;55.708;37.478;2023-03-31T09:17:32;98438.00;;;7.45;46.94
49825;BME280;35714;55.708;37.478;2023-03-31T09:20:04;98434.56;;;7.50;46.77
49825;BME280;35714;55.708;37.478;2023-03-31T09:22:37;98430.41;;;7.59;46.62
49825;BME280;35714;55.708;37.478;2023-03-31T09:25:24;98435.78;;;7.71;46.38
49825;BME280;35714;55.708;37.478;2023-03-31T09:27:53;98428.34;;;7.78;46.17
49825;BME280;35714;55.708;37.478;2023-03-31T09:30:28;98413.16;;;7.72;46.01
49825;BME280;35714;55.708;37.478;2023-03-31T09:33:14;98409.47;;;7.78;46.09
49825;BME280;35714;55.708;37.478;2023-03-31T09:35:41;98410.06;;;7.80;46.21
49825;BME280;35714;55.708;37.478;2023-03-31T09:38:10;98401.38;;;7.78;45.23
49825;BME280;35714;55.708;37.478;2023-03-31T09:40:37;98391.38;;;7.62;45.69
49825;BME280;35714;55.708;37.478;2023-03-31T09:43:06;98387.13;;;7.66;46.17
49825;BME280;35714;55.708;37.478;2023-03-31T09:45:32;98388.06;;;7.88;46.18
49825;BME280;35714;55.708;37.478;2023-03-31T09:48:04;98361.16;;;7.93;45.47
49825;BME280;35714;55.708;37.478;2023-03-31T09:50:36;98373.94;;;7.98;45.45
49825;BME280;35714;55.708;37.478;2023-03-31T09:53:14;98368.97;;;8.07;45.54
49825;BME280;35714;55.708;37.478;2023-03-31T09:55:45;98370.34;;;8.09;45.29
49825;BME280;35714;55.708;37.478;2023-03-31T09:58:15;98366.59;;;8.10;45.24
49825;BME280;35714;55.708;37.478;2023-03-31T10:00:42;98364.78;;;8.16;45.29
49825;BME280;35714;55.708;37.478;2023-03-31T10:03:20;98372.28;;;8.14;44.99
49825;BME280;35714;55.708;37.478;2023-03-31T10:05:50;98359.47;;;8.04;45.11
49825;BME280;35714;55.708;37.478;2023-03-31T10:13:28;98364.59;;;7.72;45.55
49825;BME280;35714;55.708;37.478;2023-03-31T10:16:05;98329.63;;;7.48;45.31
49825;BME280;35714;55.708;37.478;2023-03-31T10:18:36;98358.84;;;7.68;45.80
49825;BME280;35714;55.708;37.478;2023-03-31T10:21:05;98365.72;;;7.76;45.69
49825;BME280;35714;55.708;37.478;2023-03-31T10:23:33;98349.38;;;7.83;45.90
49825;BME280;35714;55.708;37.478;2023-03-31T10:26:00;98361.16;;;7.93;45.73
49825;BME280;35714;55.708;37.478;2023-03-31T10:28:31;98350.22;;;8.00;45.36
49825;BME280;35714;55.708;37.478;2023-03-31T10:30:58;98354.97;;;8.10;45.49
49825;BME280;35714;55.708;37.478;2023-03-31T10:33:30;98344.50;;;8.13;45.36
49825;BME280;35714;55.708;37.478;2023-03-31T10:36:14;98335.34;;;8.15;45.52
49825;BME280;35714;55.708;37.478;2023-03-31T10:38:43;98334.50;;;8.14;45.38
49825;BME280;35714;55.708;37.478;2023-03-31T10:41:10;98323.63;;;8.09;45.17
49825;BME280;35714;55.708;37.478;2023-03-31T10:43:41;98318.22;;;7.92;45.10
49825;BME280;35714;55.708;37.478;2023-03-31T10:46:08;98309.47;;;7.68;45.76
49825;BME280;35714;55.708;37.478;2023-03-31T10:48:36;98304.22;;;7.61;45.99
49825;BME280;35714;55.708;37.478;2023-03-31T10:53:39;98309.63;;;7.61;46.21
49825;BME280;35714;55.708;37.478;2023-03-31T10:56:08;98304.72;;;7.58;46.55
49825;BME280;35714;55.708;37.478;2023-03-31T10:59:00;98302.66;;;7.48;46.60
49825;BME280;35714;55.708;37.478;2023-03-31T11:07:34;98310.25;;;7.22;47.00
49825;BME280;35714;55.708;37.478;2023-03-31T11:12:57;98305.09;;;7.21;47.52
49825;BME280;35714;55.708;37.478;2023-03-31T11:15:30;98298.75;;;7.27;47.55
49825;BME280;35714;55.708;37.478;2023-03-31T11:21:04;98303.38;;;7.44;47.50
49825;BME280;35714;55.708;37.478;2023-03-31T11:31:45;98271.84;;;7.44;47.76
49825;BME280;35714;55.708;37.478;2023-03-31T11:34:17;98262.50;;;7.35;47.83
49825;BME280;35714;55.708;37.478;2023-03-31T11:42:28;98262.97;;;7.32;48.18
49825;BME280;35714;55.708;37.478;2023-03-31T11:45:04;98264.91;;;7.19;48.50
49825;BME280;35714;55.708;37.478;2023-03-31T11:47:37;98244.78;;;7.10;48.48
49825;BME280;35714;55.708;37.478;2023-03-31T11:50:11;98260.47;;;7.13;48.64
49825;BME280;35714;55.708;37.478;2023-03-31T11:52:42;98257.06;;;7.18;48.96
49825;BME280;35714;55.708;37.478;2023-03-31T12:03:00;98250.25;;;7.44;48.59
49825;BME280;35714;55.708;37.478;2023-03-31T12:05:30;98249.09;;;7.40;48.85
49825;BME280;35714;55.708;37.478;2023-03-31T12:08:07;98244.19;;;7.37;48.88
49825;BME280;35714;55.708;37.478;2023-03-31T12:10:37;98242.72;;;7.29;48.92
49825;BME280;35714;55.708;37.478;2023-03-31T12:16:18;98236.25;;;7.30;49.33
49825;BME280;35714;55.708;37.478;2023-03-31T12:21:52;98235.75;;;7.16;49.75
49825;BME280;35714;55.708;37.478;2023-03-31T12:24:19;98224.78;;;7.06;49.85
49825;BME280;35714;55.708;37.478;2023-03-31T12:29:36;98220.94;;;7.02;49.99
49825;BME280;35714;55.708;37.478;2023-03-31T12:32:07;98212.69;;;6.92;50.35
49825;BME280;35714;55.708;37.478;2023-03-31T12:34:42;98208.81;;;6.88;50.66
49825;BME280;35714;55.708;37.478;2023-03-31T12:43:29;98210.47;;;6.89;50.86
49825;BME280;35714;55.708;37.478;2023-03-31T12:56:11;98205.41;;;6.92;51.12
49825;BME280;35714;55.708;37.478;2023-03-31T12:58:42;98199.28;;;6.97;51.24
49825;BME280;35714;55.708;37.478;2023-03-31T13:09:06;98192.34;;;7.01;50.82
49825;BME280;35714;55.708;37.478;2023-03-31T13:11:51;98186.28;;;6.94;51.14
49825;BME280;35714;55.708;37.478;2023-03-31T13:14:35;98186.28;;;6.94;51.41
49825;BME280;35714;55.708;37.478;2023-03-31T13:19:46;98184.81;;;6.86;51.44
49825;BME280;35714;55.708;37.478;2023-03-31T13:27:51;98174.59;;;6.88;51.45
49825;BME280;35714;55.708;37.478;2023-03-31T13:35:44;98183.09;;;6.68;52.49
49825;BME280;35714;55.708;37.478;2023-03-31T13:38:33;98190.63;;;6.66;52.56
49825;BME280;35714;55.708;37.478;2023-03-31T13:41:27;98186.56;;;6.63;52.95
49825;BME280;35714;55.708;37.478;2023-03-31T13:44:27;98183.97;;;6.57;53.40
49825;BME280;35714;55.708;37.478;2023-03-31T13:47:45;98180.16;;;6.53;53.44
49825;BME280;35714;55.708;37.478;2023-03-31T14:07:33;98166.47;;;6.42;55.01
49825;BME280;35714;55.708;37.478;2023-03-31T14:10:01;98166.16;;;6.27;55.56
49825;BME280;35714;55.708;37.478;2023-03-31T14:12:36;98166.91;;;6.10;56.28
49825;BME280;35714;55.708;37.478;2023-03-31T14:15:04;98156.75;;;6.01;56.27
49825;BME280;35714;55.708;37.478;2023-03-31T14:17:36;98159.28;;;5.95;56.89
49825;BME280;35714;55.708;37.478;2023-03-31T14:20:21;98158.47;;;5.95;57.18
49825;BME280;35714;55.708;37.478;2023-03-31T14:29:06;98152.66;;;5.98;57.63
49825;BME280;35714;55.708;37.478;2023-03-31T14:34:51;98145.38;;;5.99;57.58
49825;BME280;35714;55.708;37.478;2023-03-31T14:37:20;98138.59;;;5.96;57.72
49825;BME280;35714;55.708;37.478;2023-03-31T14:39:49;98139.44;;;5.96;57.58
49825;BME280;35714;55.708;37.478;2023-03-31T14:42:20;98133.81;;;5.98;57.65
49825;BME280;35714;55.708;37.478;2023-03-31T14:44:46;98135.69;;;5.98;57.74
49825;BME280;35714;55.708;37.478;2023-03-31T14:47:19;98136.03;;;6.01;57.91
49825;BME280;35714;55.708;37.478;2023-03-31T14:49:45;98139.28;;;6.03;58.40
49825;BME280;35714;55.708;37.478;2023-03-31T14:52:17;98138.16;;;5.99;58.43
49825;BME280;35714;55.708;37.478;2023-03-31T14:54:44;98132.59;;;5.94;58.35
49825;BME280;35714;55.708;37.478;2023-03-31T14:57:17;98138.00;;;5.94;58.75
49825;BME280;35714;55.708;37.478;2023-03-31T14:59:47;98140.25;;;5.97;58.54
49825;BME280;35714;55.708;37.478;2023-03-31T15:02:29;98132.16;;;5.97;58.67
49825;BME280;35714;55.708;37.478;2023-03-31T15:04:56;98141.28;;;5.96;58.44
49825;BME280;35714;55.708;37.478;2023-03-31T15:07:22;98137.41;;;5.92;58.59
49825;BME280;35714;55.708;37.478;2023-03-31T15:09:49;98142.00;;;5.91;58.70
49825;BME280;35714;55.708;37.478;2023-03-31T15:12:17;98139.06;;;5.93;58.78
49825;BME280;35714;55.708;37.478;2023-03-31T15:14:46;98141.53;;;5.94;58.74
49825;BME280;35714;55.708;37.478;2023-03-31T15:17:18;98141.88;;;5.98;59.07
49825;BME280;35714;55.708;37.478;2023-03-31T15:19:44;98140.25;;;5.97;58.80
49825;BME280;35714;55.708;37.478;2023-03-31T15:22:13;98142.47;;;6.00;58.90
49825;BME280;35714;55.708;37.478;2023-03-31T15:24:40;98141.97;;;6.03;58.80
49825;BME280;35714;55.708;37.478;2023-03-31T15:27:17;98140.13;;;6.04;59.19
49825;BME280;35714;55.708;37.478;2023-03-31T15:29:46;98133.91;;;6.03;59.26
49825;BME280;35714;55.708;37.478;2023-03-31T15:32:17;98132.28;;;6.02;59.09
49825;BME280;35714;55.708;37.478;2023-03-31T15:34:48;98141.50;;;6.06;59.06
49825;BME280;35714;55.708;37.478;2023-03-31T15:37:15;98144.19;;;6.06;59.27
49825;BME280;35714;55.708;37.478;2023-03-31T15:39:44;98144.19;;;6.06;59.25
49825;BME280;35714;55.708;37.478;2023-03-31T15:42:11;98132.28;;;6.02;59.17
49825;BME280;35714;55.708;37.478;2023-03-31T15:44:44;98128.66;;;6.08;59.20
49825;BME280;35714;55.708;37.478;2023-03-31T15:47:19;98133.19;;;6.08;59.17
49825;BME280;35714;55.708;37.478;2023-03-31T15:52:29;98138.34;;;6.09;59.38
49825;BME280;35714;55.708;37.478;2023-03-31T15:54:56;98123.16;;;6.03;59.57
49825;BME280;35714;55.708;37.478;2023-03-31T15:57:30;98129.13;;;6.05;59.89
49825;BME280;35714;55.708;37.478;2023-03-31T15:59:56;98130.66;;;6.01;59.34
49825;BME280;35714;55.708;37.478;2023-03-31T16:02:24;98127.00;;;5.95;59.63
49825;BME280;35714;55.708;37.478;2023-03-31T16:04:55;98128.31;;;5.93;59.75
49825;BME280;35714;55.708;37.478;2023-03-31T16:07:26;98125.47;;;5.88;59.78
49825;BME280;35714;55.708;37.478;2023-03-31T16:15:35;98127.13;;;5.89;60.13
49825;BME280;35714;55.708;37.478;2023-03-31T16:18:06;98126.19;;;5.83;60.15
49825;BME280;35714;55.708;37.478;2023-03-31T16:20:36;98130.19;;;5.81;60.21
49825;BME280;35714;55.708;37.478;2023-03-31T16:23:16;98128.19;;;5.76;60.12
49825;BME280;35714;55.708;37.478;2023-03-31T16:25:43;98128.81;;;5.66;60.07